sensor_id;sensor_type;location;lat;lon;timestamp;temperature;humidity
23079;DHT22;11707;50.830;4.364;2022-08-03T00:01:16;22.60;99.90
23079;DHT22;11707;50.830;4.364;2022-08-03T00:03:42;22.70;99.90
23079;DHT22;11707;50.830;4.364;2022-08-03T00:06:08;22.60;99.90
23079;DHT22;11707;50.830;4.364;2022-08-03T00:08:34;22.60;99.90
23079;DHT22;11707;50.830;4.364;2022-08-03T00:11:00;22.50;99.90
23079;DHT22;11707;50.830;4.364;2022-08-03T00:13:26;22.40;99.90
23079;DHT22;11707;50.830;4.364;2022-08-03T00:15:52;22.40;99.90
23079;DHT22;11707;50.830;4.364;2022-08-03T00:18:18;22.50;99.90
23079;DHT22;11707;50.830;4.364;2022-08-03T00:20:43;22.60;99.90
23079;DHT22;11707;50.830;4.364;2022-08-03T00:23:10;22.60;99.90
23079;DHT22;11707;50.830;4.364;2022-08-03T00:25:36;22.50;99.90
23079;DHT22;11707;50.830;4.364;2022-08-03T00:28:05;22.40;99.90
23079;DHT22;11707;50.830;4.364;2022-08-03T00:30:31;22.40;99.90
23079;DHT22;11707;50.830;4.364;2022-08-03T00:32:57;22.40;99.90
23079;DHT22;11707;50.830;4.364;2022-08-03T00:35:23;22.30;99.90
23079;DHT22;11707;50.830;4.364;2022-08-03T00:37:49;22.30;99.90
23079;DHT22;11707;50.830;4.364;2022-08-03T00:40:16;22.20;99.90
23079;DHT22;11707;50.830;4.364;2022-08-03T00:45:27;22.20;99.90
23079;DHT22;11707;50.830;4.364;2022-08-03T00:47:53;22.20;99.90
23079;DHT22;11707;50.830;4.364;2022-08-03T00:50:21;22.10;99.90
23079;DHT22;11707;50.830;4.364;2022-08-03T00:52:48;22.10;99.90
23079;DHT22;11707;50.830;4.364;2022-08-03T00:55:14;22.00;99.90
23079;DHT22;11707;50.830;4.364;2022-08-03T00:57:41;22.00;99.90
23079;DHT22;11707;50.830;4.364;2022-08-03T01:00:09;21.90;99.90
23079;DHT22;11707;50.830;4.364;2022-08-03T01:02:35;22.00;99.90
23079;DHT22;11707;50.830;4.364;2022-08-03T01:05:01;22.10;99.90
23079;DHT22;11707;50.830;4.364;2022-08-03T01:13:20;21.90;99.90
23079;DHT22;11707;50.830;4.364;2022-08-03T01:18:46;21.90;99.90
23079;DHT22;11707;50.830;4.364;2022-08-03T01:21:24;21.80;99.90
23079;DHT22;11707;50.830;4.364;2022-08-03T01:24:21;21.70;99.90
23079;DHT22;11707;50.830;4.364;2022-08-03T01:27:11;21.70;99.90
23079;DHT22;11707;50.830;4.364;2022-08-03T01:30:04;21.60;99.90
23079;DHT22;11707;50.830;4.364;2022-08-03T01:32:51;21.60;99.90
23079;DHT22;11707;50.830;4.364;2022-08-03T01:35:33;21.60;99.90
23079;DHT22;11707;50.830;4.364;2022-08-03T01:38:02;21.60;99.90
23079;DHT22;11707;50.830;4.364;2022-08-03T01:40:29;21.60;99.90
23079;DHT22;11707;50.830;4.364;2022-08-03T01:42:58;21.70;99.90
23079;DHT22;11707;50.830;4.364;2022-08-03T01:45:26;21.60;99.90
23079;DHT22;11707;50.830;4.364;2022-08-03T01:47:53;21.60;99.90
23079;DHT22;11707;50.830;4.364;2022-08-03T01:50:25;21.70;99.90
23079;DHT22;11707;50.830;4.364;2022-08-03T01:52:52;21.80;99.90
23079;DHT22;11707;50.830;4.364;2022-08-03T01:55:19;21.80;99.90
23079;DHT22;11707;50.830;4.364;2022-08-03T01:57:48;21.90;99.90
23079;DHT22;11707;50.830;4.364;2022-08-03T02:00:15;21.80;99.90
23079;DHT22;11707;50.830;4.364;2022-08-03T02:02:42;21.70;99.90
23079;DHT22;11707;50.830;4.364;2022-08-03T02:05:09;21.70;99.90
23079;DHT22;11707;50.830;4.364;2022-08-03T02:07:37;21.70;99.90
23079;DHT22;11707;50.830;4.364;2022-08-03T02:10:05;21.70;99.90
23079;DHT22;11707;50.830;4.364;2022-08-03T02:12:33;21.80;99.90
23079;DHT22;11707;50.830;4.364;2022-08-03T02:14:59;21.90;99.90
23079;DHT22;11707;50.830;4.364;2022-08-03T02:17:27;21.90;99.90
23079;DHT22;11707;50.830;4.364;2022-08-03T02:19:55;21.90;99.90
23079;DHT22;11707;50.830;4.364;2022-08-03T02:22:23;21.90;99.90
23079;DHT22;11707;50.830;4.364;2022-08-03T02:24:50;21.80;99.90
23079;DHT22;11707;50.830;4.364;2022-08-03T02:27:21;21.80;99.90
23079;DHT22;11707;50.830;4.364;2022-08-03T02:29:52;21.90;99.90
23079;DHT22;11707;50.830;4.364;2022-08-03T02:32:23;22.00;99.90
23079;DHT22;11707;50.830;4.364;2022-08-03T02:34:52;22.00;99.90
23079;DHT22;11707;50.830;4.364;2022-08-03T02:37:20;22.10;99.90
23079;DHT22;11707;50.830;4.364;2022-08-03T02:39:48;22.20;99.90
23079;DHT22;11707;50.830;4.364;2022-08-03T02:42:20;22.30;99.90
23079;DHT22;11707;50.830;4.364;2022-08-03T02:44:48;22.20;99.90
23079;DHT22;11707;50.830;4.364;2022-08-03T02:47:16;22.10;99.90
23079;DHT22;11707;50.830;4.364;2022-08-03T02:49:47;21.90;99.90
23079;DHT22;11707;50.830;4.364;2022-08-03T02:52:14;21.80;99.90
23079;DHT22;11707;50.830;4.364;2022-08-03T02:54:40;21.80;99.90
23079;DHT22;11707;50.830;4.364;2022-08-03T02:57:09;21.80;99.90
23079;DHT22;11707;50.830;4.364;2022-08-03T02:59:36;21.80;99.90
23079;DHT22;11707;50.830;4.364;2022-08-03T03:02:02;21.50;99.90
23079;DHT22;11707;50.830;4.364;2022-08-03T03:04:29;21.60;99.90
23079;DHT22;11707;50.830;4.364;2022-08-03T03:06:56;21.70;99.90
23079;DHT22;11707;50.830;4.364;2022-08-03T03:09:23;21.70;99.90
23079;DHT22;11707;50.830;4.364;2022-08-03T03:11:50;21.60;99.90
23079;DHT22;11707;50.830;4.364;2022-08-03T03:14:17;21.70;99.90
23079;DHT22;11707;50.830;4.364;2022-08-03T03:16:44;21.80;99.90
23079;DHT22;11707;50.830;4.364;2022-08-03T03:19:12;21.80;99.90
23079;DHT22;11707;50.830;4.364;2022-08-03T03:21:38;21.60;99.90
23079;DHT22;11707;50.830;4.364;2022-08-03T03:24:05;21.60;99.90
23079;DHT22;11707;50.830;4.364;2022-08-03T03:26:32;21.50;99.90
23079;DHT22;11707;50.830;4.364;2022-08-03T03:29:00;21.50;99.90
23079;DHT22;11707;50.830;4.364;2022-08-03T03:31:27;21.50;99.90
23079;DHT22;11707;50.830;4.364;2022-08-03T03:33:56;21.40;99.90
23079;DHT22;11707;50.830;4.364;2022-08-03T03:36:22;21.40;99.90
23079;DHT22;11707;50.830;4.364;2022-08-03T03:38:48;21.30;99.90
23079;DHT22;11707;50.830;4.364;2022-08-03T03:41:13;21.40;99.90
23079;DHT22;11707;50.830;4.364;2022-08-03T03:43:39;21.30;99.90
23079;DHT22;11707;50.830;4.364;2022-08-03T03:46:05;21.40;99.90
23079;DHT22;11707;50.830;4.364;2022-08-03T03:48:32;21.60;99.90
23079;DHT22;11707;50.830;4.364;2022-08-03T03:50:58;21.60;99.90
23079;DHT22;11707;50.830;4.364;2022-08-03T03:53:24;21.70;99.90
23079;DHT22;11707;50.830;4.364;2022-08-03T03:55:52;21.70;99.90
23079;DHT22;11707;50.830;4.364;2022-08-03T03:58:19;21.60;99.90
23079;DHT22;11707;50.830;4.364;2022-08-03T04:00:45;21.60;99.90
23079;DHT22;11707;50.830;4.364;2022-08-03T04:03:11;21.50;99.90
23079;DHT22;11707;50.830;4.364;2022-08-03T04:05:37;21.50;99.90
23079;DHT22;11707;50.830;4.364;2022-08-03T04:08:22;21.20;99.90
23079;DHT22;11707;50.830;4.364;2022-08-03T04:11:26;21.00;99.90
23079;DHT22;11707;50.830;4.364;2022-08-03T04:14:02;21.10;99.90
23079;DHT22;11707;50.830;4.364;2022-08-03T04:16:33;21.20;99.90
23079;DHT22;11707;50.830;4.364;2022-08-03T04:19:16;21.30;99.90
23079;DHT22;11707;50.830;4.364;2022-08-03T04:21:47;21.40;99.90
23079;DHT22;11707;50.830;4.364;2022-08-03T04:24:14;21.40;99.90
23079;DHT22;11707;50.830;4.364;2022-08-03T04:26:42;21.40;99.90
23079;DHT22;11707;50.830;4.364;2022-08-03T04:29:10;21.40;99.90
23079;DHT22;11707;50.830;4.364;2022-08-03T04:31:39;21.50;99.90
23079;DHT22;11707;50.830;4.364;2022-08-03T04:34:06;21.50;99.90
23079;DHT22;11707;50.830;4.364;2022-08-03T04:36:36;21.60;99.90
23079;DHT22;11707;50.830;4.364;2022-08-03T04:39:07;21.60;99.90
23079;DHT22;11707;50.830;4.364;2022-08-03T04:41:34;21.60;99.90
23079;DHT22;11707;50.830;4.364;2022-08-03T04:44:01;21.60;99.90
23079;DHT22;11707;50.830;4.364;2022-08-03T04:46:33;21.50;99.90
23079;DHT22;11707;50.830;4.364;2022-08-03T04:49:00;21.50;99.90
23079;DHT22;11707;50.830;4.364;2022-08-03T04:51:26;21.60;99.90
23079;DHT22;11707;50.830;4.364;2022-08-03T04:53:52;21.70;99.90
23079;DHT22;11707;50.830;4.364;2022-08-03T04:56:18;21.70;99.90
23079;DHT22;11707;50.830;4.364;2022-08-03T04:58:44;21.60;99.90
23079;DHT22;11707;50.830;4.364;2022-08-03T05:01:09;21.60;99.90
23079;DHT22;11707;50.830;4.364;2022-08-03T05:03:35;21.60;99.90
23079;DHT22;11707;50.830;4.364;2022-08-03T05:06:01;21.60;99.90
23079;DHT22;11707;50.830;4.364;2022-08-03T05:08:28;21.60;99.90
23079;DHT22;11707;50.830;4.364;2022-08-03T05:10:54;21.60;99.90
23079;DHT22;11707;50.830;4.364;2022-08-03T05:13:20;21.70;99.90
23079;DHT22;11707;50.830;4.364;2022-08-03T05:15:45;21.70;99.90
23079;DHT22;11707;50.830;4.364;2022-08-03T05:18:11;21.60;99.90
23079;DHT22;11707;50.830;4.364;2022-08-03T05:20:36;21.70;99.90
23079;DHT22;11707;50.830;4.364;2022-08-03T05:23:02;21.80;99.90
23079;DHT22;11707;50.830;4.364;2022-08-03T05:25:29;21.80;99.90
23079;DHT22;11707;50.830;4.364;2022-08-03T05:27:54;21.80;99.90
23079;DHT22;11707;50.830;4.364;2022-08-03T05:30:21;21.80;99.90
23079;DHT22;11707;50.830;4.364;2022-08-03T05:32:46;21.90;99.90
23079;DHT22;11707;50.830;4.364;2022-08-03T05:35:12;21.90;99.90
23079;DHT22;11707;50.830;4.364;2022-08-03T05:37:38;22.00;99.90
23079;DHT22;11707;50.830;4.364;2022-08-03T05:40:04;22.00;99.90
23079;DHT22;11707;50.830;4.364;2022-08-03T05:42:30;22.00;99.90
23079;DHT22;11707;50.830;4.364;2022-08-03T05:44:55;21.90;99.90
23079;DHT22;11707;50.830;4.364;2022-08-03T05:47:21;22.00;99.90
23079;DHT22;11707;50.830;4.364;2022-08-03T05:49:47;21.90;99.90
23079;DHT22;11707;50.830;4.364;2022-08-03T05:52:12;21.60;99.90
23079;DHT22;11707;50.830;4.364;2022-08-03T05:54:38;21.60;99.90
23079;DHT22;11707;50.830;4.364;2022-08-03T05:57:04;21.80;99.90
23079;DHT22;11707;50.830;4.364;2022-08-03T05:59:30;21.90;99.90
23079;DHT22;11707;50.830;4.364;2022-08-03T06:01:55;22.10;99.90
23079;DHT22;11707;50.830;4.364;2022-08-03T06:04:21;22.10;99.90
23079;DHT22;11707;50.830;4.364;2022-08-03T06:06:47;22.00;99.90
23079;DHT22;11707;50.830;4.364;2022-08-03T06:09:15;21.90;99.90
23079;DHT22;11707;50.830;4.364;2022-08-03T06:11:41;22.10;99.90
23079;DHT22;11707;50.830;4.364;2022-08-03T06:14:06;22.20;99.90
23079;DHT22;11707;50.830;4.364;2022-08-03T06:16:32;22.30;99.90
23079;DHT22;11707;50.830;4.364;2022-08-03T06:18:58;22.30;99.90
23079;DHT22;11707;50.830;4.364;2022-08-03T06:21:23;22.40;99.90
23079;DHT22;11707;50.830;4.364;2022-08-03T06:23:49;22.40;99.90
23079;DHT22;11707;50.830;4.364;2022-08-03T06:26:15;22.60;99.90
23079;DHT22;11707;50.830;4.364;2022-08-03T06:28:43;22.60;99.90
23079;DHT22;11707;50.830;4.364;2022-08-03T06:31:09;22.40;99.90
23079;DHT22;11707;50.830;4.364;2022-08-03T06:33:35;22.50;99.90
23079;DHT22;11707;50.830;4.364;2022-08-03T06:36:00;22.70;99.90
23079;DHT22;11707;50.830;4.364;2022-08-03T06:38:27;22.80;99.90
23079;DHT22;11707;50.830;4.364;2022-08-03T06:40:53;23.00;99.90
23079;DHT22;11707;50.830;4.364;2022-08-03T06:43:19;22.70;99.90
23079;DHT22;11707;50.830;4.364;2022-08-03T06:45:45;22.70;99.90
23079;DHT22;11707;50.830;4.364;2022-08-03T06:48:11;22.90;99.90
23079;DHT22;11707;50.830;4.364;2022-08-03T06:50:38;23.00;99.90
23079;DHT22;11707;50.830;4.364;2022-08-03T06:53:05;22.80;99.90
23079;DHT22;11707;50.830;4.364;2022-08-03T06:55:31;22.90;99.90
23079;DHT22;11707;50.830;4.364;2022-08-03T06:57:57;22.90;99.90
23079;DHT22;11707;50.830;4.364;2022-08-03T07:00:23;23.10;99.90
23079;DHT22;11707;50.830;4.364;2022-08-03T07:02:49;23.10;99.90
23079;DHT22;11707;50.830;4.364;2022-08-03T07:05:15;23.00;99.90
23079;DHT22;11707;50.830;4.364;2022-08-03T07:07:42;22.90;99.90
23079;DHT22;11707;50.830;4.364;2022-08-03T07:10:08;22.80;99.90
23079;DHT22;11707;50.830;4.364;2022-08-03T07:12:36;22.80;99.90
23079;DHT22;11707;50.830;4.364;2022-08-03T07:15:04;22.60;99.90
23079;DHT22;11707;50.830;4.364;2022-08-03T07:17:34;22.60;99.90
23079;DHT22;11707;50.830;4.364;2022-08-03T07:20:03;22.70;99.90
23079;DHT22;11707;50.830;4.364;2022-08-03T07:22:29;22.90;99.90
23079;DHT22;11707;50.830;4.364;2022-08-03T07:24:55;23.10;99.90
23079;DHT22;11707;50.830;4.364;2022-08-03T07:27:21;23.40;99.90
23079;DHT22;11707;50.830;4.364;2022-08-03T07:29:47;23.50;99.90
23079;DHT22;11707;50.830;4.364;2022-08-03T07:32:13;23.60;99.90
23079;DHT22;11707;50.830;4.364;2022-08-03T07:34:39;23.40;99.90
23079;DHT22;11707;50.830;4.364;2022-08-03T07:37:04;23.50;99.90
23079;DHT22;11707;50.830;4.364;2022-08-03T07:39:30;23.50;99.90
23079;DHT22;11707;50.830;4.364;2022-08-03T07:41:56;23.50;99.90
23079;DHT22;11707;50.830;4.364;2022-08-03T07:44:22;23.60;99.90
23079;DHT22;11707;50.830;4.364;2022-08-03T07:46:47;23.60;99.90
23079;DHT22;11707;50.830;4.364;2022-08-03T07:49:15;23.50;99.90
23079;DHT22;11707;50.830;4.364;2022-08-03T07:51:40;23.60;99.90
23079;DHT22;11707;50.830;4.364;2022-08-03T07:54:06;23.80;99.90
23079;DHT22;11707;50.830;4.364;2022-08-03T07:56:35;23.90;99.90
23079;DHT22;11707;50.830;4.364;2022-08-03T07:59:00;24.00;99.90
23079;DHT22;11707;50.830;4.364;2022-08-03T08:01:27;24.10;99.90
23079;DHT22;11707;50.830;4.364;2022-08-03T08:03:53;24.10;99.90
23079;DHT22;11707;50.830;4.364;2022-08-03T08:06:20;24.20;99.90
23079;DHT22;11707;50.830;4.364;2022-08-03T08:08:46;24.30;99.90
23079;DHT22;11707;50.830;4.364;2022-08-03T08:11:13;24.30;99.90
23079;DHT22;11707;50.830;4.364;2022-08-03T08:13:39;24.40;99.90
23079;DHT22;11707;50.830;4.364;2022-08-03T08:16:05;24.50;99.90
23079;DHT22;11707;50.830;4.364;2022-08-03T08:18:31;24.50;99.90
23079;DHT22;11707;50.830;4.364;2022-08-03T08:20:56;24.60;99.90
23079;DHT22;11707;50.830;4.364;2022-08-03T08:23:22;24.80;99.90
23079;DHT22;11707;50.830;4.364;2022-08-03T08:25:52;25.00;99.90
23079;DHT22;11707;50.830;4.364;2022-08-03T08:28:18;25.20;99.90
23079;DHT22;11707;50.830;4.364;2022-08-03T08:30:45;25.20;99.90
23079;DHT22;11707;50.830;4.364;2022-08-03T08:33:11;25.30;99.90
23079;DHT22;11707;50.830;4.364;2022-08-03T08:35:37;25.40;99.90
23079;DHT22;11707;50.830;4.364;2022-08-03T08:38:02;25.50;99.90
23079;DHT22;11707;50.830;4.364;2022-08-03T08:40:29;25.50;99.90
23079;DHT22;11707;50.830;4.364;2022-08-03T08:42:55;25.50;99.90
23079;DHT22;11707;50.830;4.364;2022-08-03T08:45:21;25.70;99.90
23079;DHT22;11707;50.830;4.364;2022-08-03T08:47:48;25.60;99.90
23079;DHT22;11707;50.830;4.364;2022-08-03T08:50:18;25.60;99.90
23079;DHT22;11707;50.830;4.364;2022-08-03T08:52:47;25.60;99.90
23079;DHT22;11707;50.830;4.364;2022-08-03T08:55:20;25.70;99.90
23079;DHT22;11707;50.830;4.364;2022-08-03T08:57:49;25.80;99.90
23079;DHT22;11707;50.830;4.364;2022-08-03T09:00:17;26.10;99.90
23079;DHT22;11707;50.830;4.364;2022-08-03T09:02:43;26.30;99.90
23079;DHT22;11707;50.830;4.364;2022-08-03T09:05:13;26.40;99.90
23079;DHT22;11707;50.830;4.364;2022-08-03T09:07:40;26.40;99.90
23079;DHT22;11707;50.830;4.364;2022-08-03T09:10:07;26.60;99.90
23079;DHT22;11707;50.830;4.364;2022-08-03T09:12:45;26.80;99.90
23079;DHT22;11707;50.830;4.364;2022-08-03T09:15:25;26.60;99.90
23079;DHT22;11707;50.830;4.364;2022-08-03T09:17:55;26.60;99.90
23079;DHT22;11707;50.830;4.364;2022-08-03T09:20:22;26.50;99.90
23079;DHT22;11707;50.830;4.364;2022-08-03T09:25:17;26.60;99.90
23079;DHT22;11707;50.830;4.364;2022-08-03T09:27:44;26.70;99.90
23079;DHT22;11707;50.830;4.364;2022-08-03T09:30:17;26.90;99.90
23079;DHT22;11707;50.830;4.364;2022-08-03T09:32:43;27.20;99.90
23079;DHT22;11707;50.830;4.364;2022-08-03T09:35:12;27.50;99.90
23079;DHT22;11707;50.830;4.364;2022-08-03T09:37:38;27.70;99.90
23079;DHT22;11707;50.830;4.364;2022-08-03T09:40:04;27.80;99.90
23079;DHT22;11707;50.830;4.364;2022-08-03T09:42:30;27.80;99.90
23079;DHT22;11707;50.830;4.364;2022-08-03T09:44:59;27.90;99.90
23079;DHT22;11707;50.830;4.364;2022-08-03T09:47:32;27.90;99.90
23079;DHT22;11707;50.830;4.364;2022-08-03T09:50:04;27.70;99.90
23079;DHT22;11707;50.830;4.364;2022-08-03T09:52:35;27.80;99.90
23079;DHT22;11707;50.830;4.364;2022-08-03T09:55:07;28.10;99.90
23079;DHT22;11707;50.830;4.364;2022-08-03T09:57:33;28.00;99.90
23079;DHT22;11707;50.830;4.364;2022-08-03T10:00:10;27.80;99.90
23079;DHT22;11707;50.830;4.364;2022-08-03T10:02:38;27.70;99.90
23079;DHT22;11707;50.830;4.364;2022-08-03T10:05:06;27.70;99.90
23079;DHT22;11707;50.830;4.364;2022-08-03T10:07:47;28.00;99.90
23079;DHT22;11707;50.830;4.364;2022-08-03T10:10:14;27.90;99.90
23079;DHT22;11707;50.830;4.364;2022-08-03T10:12:42;28.00;99.90
23079;DHT22;11707;50.830;4.364;2022-08-03T10:15:08;28.00;99.90
23079;DHT22;11707;50.830;4.364;2022-08-03T10:17:35;28.10;99.90
23079;DHT22;11707;50.830;4.364;2022-08-03T10:20:02;28.20;99.90
23079;DHT22;11707;50.830;4.364;2022-08-03T10:22:32;28.30;99.90
23079;DHT22;11707;50.830;4.364;2022-08-03T10:27:29;28.70;99.90
23079;DHT22;11707;50.830;4.364;2022-08-03T10:30:00;28.90;99.90
23079;DHT22;11707;50.830;4.364;2022-08-03T10:35:04;29.00;99.90
23079;DHT22;11707;50.830;4.364;2022-08-03T10:37:33;29.00;99.90
23079;DHT22;11707;50.830;4.364;2022-08-03T10:40:02;28.90;99.90
23079;DHT22;11707;50.830;4.364;2022-08-03T10:42:28;28.70;99.90
23079;DHT22;11707;50.830;4.364;2022-08-03T10:45:06;28.50;99.90
23079;DHT22;11707;50.830;4.364;2022-08-03T10:47:34;28.60;99.90
23079;DHT22;11707;50.830;4.364;2022-08-03T10:50:01;28.70;99.90
23079;DHT22;11707;50.830;4.364;2022-08-03T10:52:27;29.00;99.90
23079;DHT22;11707;50.830;4.364;2022-08-03T10:54:52;29.10;99.90
23079;DHT22;11707;50.830;4.364;2022-08-03T10:57:50;29.20;99.90
23079;DHT22;11707;50.830;4.364;2022-08-03T11:00:24;29.40;99.90
23079;DHT22;11707;50.830;4.364;2022-08-03T11:03:17;29.20;99.90
23079;DHT22;11707;50.830;4.364;2022-08-03T11:05:45;29.40;99.90
23079;DHT22;11707;50.830;4.364;2022-08-03T11:08:32;29.40;99.90
23079;DHT22;11707;50.830;4.364;2022-08-03T11:16:29;29.90;99.90
23079;DHT22;11707;50.830;4.364;2022-08-03T11:27:29;29.70;99.90
23079;DHT22;11707;50.830;4.364;2022-08-03T11:35:15;30.10;99.40
23079;DHT22;11707;50.830;4.364;2022-08-03T11:43:06;29.70;99.60
23079;DHT22;11707;50.830;4.364;2022-08-03T11:45:32;29.80;99.30
23079;DHT22;11707;50.830;4.364;2022-08-03T11:48:14;29.90;99.10
23079;DHT22;11707;50.830;4.364;2022-08-03T11:50:41;30.00;99.00
23079;DHT22;11707;50.830;4.364;2022-08-03T11:53:14;30.10;98.80
23079;DHT22;11707;50.830;4.364;2022-08-03T11:55:41;30.20;98.60
23079;DHT22;11707;50.830;4.364;2022-08-03T11:58:15;30.10;97.90
23079;DHT22;11707;50.830;4.364;2022-08-03T12:00:40;30.30;97.30
23079;DHT22;11707;50.830;4.364;2022-08-03T12:03:08;30.20;96.80
23079;DHT22;11707;50.830;4.364;2022-08-03T12:06:01;30.10;96.90
23079;DHT22;11707;50.830;4.364;2022-08-03T12:08:32;30.40;96.70
23079;DHT22;11707;50.830;4.364;2022-08-03T12:11:00;30.60;96.50
23079;DHT22;11707;50.830;4.364;2022-08-03T12:13:45;30.70;96.00
23079;DHT22;11707;50.830;4.364;2022-08-03T12:16:19;30.60;96.20
23079;DHT22;11707;50.830;4.364;2022-08-03T12:21:22;31.00;95.10
23079;DHT22;11707;50.830;4.364;2022-08-03T12:23:49;30.80;94.90
23079;DHT22;11707;50.830;4.364;2022-08-03T12:26:15;30.80;94.80
23079;DHT22;11707;50.830;4.364;2022-08-03T12:28:48;30.60;94.40
23079;DHT22;11707;50.830;4.364;2022-08-03T12:31:14;30.50;94.60
23079;DHT22;11707;50.830;4.364;2022-08-03T12:34:00;30.60;94.70
23079;DHT22;11707;50.830;4.364;2022-08-03T12:36:29;30.50;95.30
23079;DHT22;11707;50.830;4.364;2022-08-03T12:38:57;30.60;94.80
23079;DHT22;11707;50.830;4.364;2022-08-03T12:41:34;30.60;94.70
23079;DHT22;11707;50.830;4.364;2022-08-03T12:44:05;30.50;94.60
23079;DHT22;11707;50.830;4.364;2022-08-03T12:46:38;30.60;94.50
23079;DHT22;11707;50.830;4.364;2022-08-03T12:49:12;30.50;94.60
23079;DHT22;11707;50.830;4.364;2022-08-03T12:57:04;31.00;94.10
23079;DHT22;11707;50.830;4.364;2022-08-03T12:59:33;32.50;92.60
23079;DHT22;11707;50.830;4.364;2022-08-03T13:01:59;34.40;90.10
23079;DHT22;11707;50.830;4.364;2022-08-03T13:04:32;35.10;84.60
23079;DHT22;11707;50.830;4.364;2022-08-03T13:07:04;33.80;86.30
23079;DHT22;11707;50.830;4.364;2022-08-03T13:09:41;34.40;85.10
23079;DHT22;11707;50.830;4.364;2022-08-03T13:12:21;35.60;80.60
23079;DHT22;11707;50.830;4.364;2022-08-03T13:14:58;37.00;75.90
23079;DHT22;11707;50.830;4.364;2022-08-03T13:17:25;37.90;71.20
23079;DHT22;11707;50.830;4.364;2022-08-03T13:19:51;38.50;65.90
23079;DHT22;11707;50.830;4.364;2022-08-03T13:22:23;37.30;66.60
23079;DHT22;11707;50.830;4.364;2022-08-03T13:24:51;37.50;66.20
23079;DHT22;11707;50.830;4.364;2022-08-03T13:27:18;38.90;63.00
23079;DHT22;11707;50.830;4.364;2022-08-03T13:29:43;38.80;60.50
23079;DHT22;11707;50.830;4.364;2022-08-03T13:32:10;39.90;58.50
23079;DHT22;11707;50.830;4.364;2022-08-03T13:34:36;39.70;57.10
23079;DHT22;11707;50.830;4.364;2022-08-03T13:37:02;40.10;56.10
23079;DHT22;11707;50.830;4.364;2022-08-03T13:39:28;40.00;55.10
23079;DHT22;11707;50.830;4.364;2022-08-03T13:41:53;39.80;54.60
23079;DHT22;11707;50.830;4.364;2022-08-03T13:44:19;38.30;56.20
23079;DHT22;11707;50.830;4.364;2022-08-03T13:46:46;38.00;56.60
23079;DHT22;11707;50.830;4.364;2022-08-03T13:49:11;38.20;56.40
23079;DHT22;11707;50.830;4.364;2022-08-03T13:51:37;38.90;55.20
23079;DHT22;11707;50.830;4.364;2022-08-03T13:54:03;38.30;55.40
23079;DHT22;11707;50.830;4.364;2022-08-03T13:56:29;38.60;54.70
23079;DHT22;11707;50.830;4.364;2022-08-03T13:58:56;37.70;55.60
23079;DHT22;11707;50.830;4.364;2022-08-03T14:01:22;38.20;55.40
23079;DHT22;11707;50.830;4.364;2022-08-03T14:03:48;37.70;55.60
23079;DHT22;11707;50.830;4.364;2022-08-03T14:06:17;36.40;57.50
23079;DHT22;11707;50.830;4.364;2022-08-03T14:08:43;36.60;58.20
23079;DHT22;11707;50.830;4.364;2022-08-03T14:11:09;37.80;56.20
23079;DHT22;11707;50.830;4.364;2022-08-03T14:13:35;38.80;54.80
23079;DHT22;11707;50.830;4.364;2022-08-03T14:16:01;39.70;53.70
23079;DHT22;11707;50.830;4.364;2022-08-03T14:18:27;40.40;52.20
23079;DHT22;11707;50.830;4.364;2022-08-03T14:20:52;40.10;51.90
23079;DHT22;11707;50.830;4.364;2022-08-03T14:23:18;39.40;51.90
23079;DHT22;11707;50.830;4.364;2022-08-03T14:25:44;38.90;53.40
23079;DHT22;11707;50.830;4.364;2022-08-03T14:28:10;39.30;52.30
23079;DHT22;11707;50.830;4.364;2022-08-03T14:30:36;38.40;52.90
23079;DHT22;11707;50.830;4.364;2022-08-03T14:33:02;37.90;53.80
23079;DHT22;11707;50.830;4.364;2022-08-03T14:35:28;37.60;54.70
23079;DHT22;11707;50.830;4.364;2022-08-03T14:37:53;39.10;53.30
23079;DHT22;11707;50.830;4.364;2022-08-03T14:40:20;39.80;51.20
23079;DHT22;11707;50.830;4.364;2022-08-03T14:42:46;40.60;50.40
23079;DHT22;11707;50.830;4.364;2022-08-03T14:45:11;40.40;50.50
23079;DHT22;11707;50.830;4.364;2022-08-03T14:47:38;41.50;49.10
23079;DHT22;11707;50.830;4.364;2022-08-03T14:50:05;40.80;48.90
23079;DHT22;11707;50.830;4.364;2022-08-03T14:52:31;41.40;48.60
23079;DHT22;11707;50.830;4.364;2022-08-03T14:54:58;41.80;47.60
23079;DHT22;11707;50.830;4.364;2022-08-03T14:57:24;41.70;47.90
23079;DHT22;11707;50.830;4.364;2022-08-03T14:59:50;42.00;47.20
23079;DHT22;11707;50.830;4.364;2022-08-03T15:02:16;41.00;47.20
23079;DHT22;11707;50.830;4.364;2022-08-03T15:04:41;39.00;49.50
23079;DHT22;11707;50.830;4.364;2022-08-03T15:07:07;39.70;49.30
23079;DHT22;11707;50.830;4.364;2022-08-03T15:09:33;40.00;48.70
23079;DHT22;11707;50.830;4.364;2022-08-03T15:11:59;40.50;48.20
23079;DHT22;11707;50.830;4.364;2022-08-03T15:14:25;41.50;47.40
23079;DHT22;11707;50.830;4.364;2022-08-03T15:16:50;41.40;46.90
23079;DHT22;11707;50.830;4.364;2022-08-03T15:19:17;40.80;47.20
23079;DHT22;11707;50.830;4.364;2022-08-03T15:21:43;40.30;47.70
23079;DHT22;11707;50.830;4.364;2022-08-03T15:24:08;39.80;48.80
23079;DHT22;11707;50.830;4.364;2022-08-03T15:26:34;40.00;48.50
23079;DHT22;11707;50.830;4.364;2022-08-03T15:29:00;39.40;48.70
23079;DHT22;11707;50.830;4.364;2022-08-03T15:31:25;38.60;49.50
23079;DHT22;11707;50.830;4.364;2022-08-03T15:33:51;37.50;50.90
23079;DHT22;11707;50.830;4.364;2022-08-03T15:36:17;36.90;51.50
23079;DHT22;11707;50.830;4.364;2022-08-03T15:38:44;35.80;53.50
23079;DHT22;11707;50.830;4.364;2022-08-03T15:41:13;35.40;54.20
23079;DHT22;11707;50.830;4.364;2022-08-03T15:43:39;35.10;54.60
23079;DHT22;11707;50.830;4.364;2022-08-03T15:46:05;34.20;56.30
23079;DHT22;11707;50.830;4.364;2022-08-03T15:48:31;33.90;57.20
23079;DHT22;11707;50.830;4.364;2022-08-03T15:50:57;33.80;57.50
23079;DHT22;11707;50.830;4.364;2022-08-03T15:53:23;34.10;57.20
23079;DHT22;11707;50.830;4.364;2022-08-03T15:55:48;34.10;57.30
23079;DHT22;11707;50.830;4.364;2022-08-03T15:58:14;34.00;57.60
23079;DHT22;11707;50.830;4.364;2022-08-03T16:00:41;34.10;57.70
23079;DHT22;11707;50.830;4.364;2022-08-03T16:03:07;34.10;57.50
23079;DHT22;11707;50.830;4.364;2022-08-03T16:05:33;34.20;57.60
23079;DHT22;11707;50.830;4.364;2022-08-03T16:07:58;34.10;57.80
23079;DHT22;11707;50.830;4.364;2022-08-03T16:10:24;34.10;58.10
23079;DHT22;11707;50.830;4.364;2022-08-03T16:12:53;33.90;57.90
23079;DHT22;11707;50.830;4.364;2022-08-03T16:15:19;33.70;58.30
23079;DHT22;11707;50.830;4.364;2022-08-03T16:17:45;33.40;58.40
23079;DHT22;11707;50.830;4.364;2022-08-03T16:20:11;33.20;59.10
23079;DHT22;11707;50.830;4.364;2022-08-03T16:22:45;33.00;59.50
23079;DHT22;11707;50.830;4.364;2022-08-03T16:25:13;32.70;60.20
23079;DHT22;11707;50.830;4.364;2022-08-03T16:27:39;32.80;60.10